Flight Track Log - Related Links

Times and Time Zones

All times are in EDT time to prevent confusion due to time zone crossing. See the RPA3291 flight status page for this flight to view local times or setup timezone preferences in your user account.

Time Position Orientation Groundspeed Altitude Reporting Facility
EDT Latitude Longitude Course Direction KTS MPH feet Rate Location/Type
Thu 09:17:08 PM 39.8667 -75.2833 185° South 148 170 800  Level Philadelphia TRACON
Thu 09:18:08 PM 39.8167 -75.3167 207° Southwest 202 232 2,300 1,850 Climbing Philadelphia TRACON
Thu 09:19:00 PM 39.5695 -75.3028 189° South  Level FlightAware Approximate
Thu 09:19:08 PM 39.7667 -75.3667 218° Southwest 271 312 4,500  Level Philadelphia TRACON
Thu 09:20:00 PM 39.4680 -75.3273 194° South  Level FlightAware Approximate
Thu 09:21:00 PM 39.3778 -75.3395 185° South  Level FlightAware Approximate
Thu 09:21:23 PM 39.6008 -75.3681 180° South 290 334 10,500  Level Washington Center
Thu 09:22:00 PM 39.2872 -75.3496 185° South  Level FlightAware Approximate
Thu 09:22:23 PM 39.5133 -75.3736 183° South 296 341 12,800  Level Washington Center
Thu 09:23:24 PM 39.4236 -75.3739 180° South 315 362 14,600 1,587 Climbing Washington Center
Thu 09:24:24 PM 39.3319 -75.3797 183° South 328 377 16,000 1,200 Climbing Washington Center
Thu 09:25:24 PM 39.2342 -75.3800 180° South 333 383 17,000 508 Climbing Washington Center
Thu 09:26:22 PM 39.1403 -75.3936 186° South 338 389 17,000 559 Level Washington Center
Thu 09:27:22 PM 39.0444 -75.4072 186° South 348 400 18,100 1,377 Climbing Washington Center
Thu 09:28:24 PM 38.9444 -75.4236 187° South 353 406 19,800 1,820 Climbing Washington Center
Thu 09:29:24 PM 38.8444 -75.4369 186° South 358 412 21,800 1,881 Climbing Washington Center
Thu 09:30:22 PM 38.7403 -75.4533 187° South 370 426 23,500 1,780 Climbing Washington Center
Thu 09:31:22 PM 38.6339 -75.4719 188° South 383 441 25,300 1,686 Climbing Washington Center
Thu 09:32:23 PM 38.5275 -75.4881 187° South 388 447 26,900 1,388 Climbing Washington Center
Thu 09:33:23 PM 38.4150 -75.5017 185° South 388 447 28,100 1,240 Climbing Washington Center
Thu 09:34:24 PM 38.3003 -75.5467 197° South 393 452 29,400 1,160 Climbing Washington Center
Thu 09:35:22 PM 38.2106 -75.6339 217° Southwest 393 452 30,400 908 Climbing Washington Center
Thu 09:36:23 PM 38.1250 -75.7158 217° Southwest 412 474 31,200 885 Climbing Washington Center
Thu 09:37:24 PM 38.0269 -75.8158 219° Southwest 423 487 32,200 1,210 Climbing Washington Center
Thu 09:38:22 PM 37.9392 -75.8919 214° Southwest 428 493 33,600 908 Climbing Washington Center
Thu 09:39:23 PM 37.8472 -75.9758 216° Southwest 423 487 34,000 198 Climbing Washington Center
Thu 09:40:23 PM 37.7572 -76.0672 219° Southwest 423 487 34,000  Level Washington Center
Thu 09:41:24 PM 37.6692 -76.1506 217° Southwest 417 480 34,000  Level Washington Center
Thu 09:42:22 PM 37.5750 -76.2286 213° Southwest 406 467 34,000  Level Washington Center
Thu 09:43:23 PM 37.4869 -76.3089 216° Southwest 406 467 34,000  Level Washington Center
Thu 09:44:24 PM 37.3967 -76.3944 217° Southwest 406 467 34,000  Level Washington Center
Thu 09:45:25 PM 37.3086 -76.4744 216° Southwest 406 467 34,000  Level Washington Center
Thu 09:46:22 PM 37.2183 -76.5542 215° Southwest 406 467 34,000  Level Washington Center
Thu 09:47:23 PM 37.1278 -76.6339 215° Southwest 406 467 34,000  Level Washington Center
Thu 09:48:22 PM 37.0375 -76.7158 216° Southwest 406 467 34,000  Level Washington Center
Thu 09:49:23 PM 36.9492 -76.7978 217° Southwest 406 467 34,000  Level Washington Center
Thu 09:50:23 PM 36.8586 -76.8794 216° Southwest 406 467 34,000  Level Washington Center
Thu 09:51:24 PM 36.7719 -76.9611 217° Southwest 406 467 34,000  Level Washington Center
Thu 09:52:22 PM 36.6836 -77.0422 216° Southwest 406 467 34,000  Level Washington Center
Thu 09:53:23 PM 36.5947 -77.1233 216° Southwest 406 467 34,000  Level Washington Center
Thu 09:54:23 PM 36.5103 -77.2072 219° Southwest 396 456 34,000  Level Washington Center
Thu 09:55:22 PM 36.4236 -77.2906 218° Southwest 396 456 34,000  Level Washington Center
Thu 09:56:23 PM 36.3369 -77.3711 217° Southwest 396 456 34,000  Level Washington Center
Thu 09:57:23 PM 36.2503 -77.4489 216° Southwest 396 456 34,000  Level Washington Center
Thu 09:58:24 PM 36.1675 -77.5294 218° Southwest 396 456 34,000  Level Washington Center
Thu 09:59:22 PM 36.0806 -77.6119 217° Southwest 396 456 34,000  Level Washington Center
Thu 10:00:23 PM 35.9936 -77.6919 217° Southwest 396 456 34,000  Level Washington Center
Thu 10:01:23 PM 35.9047 -77.7639 213° Southwest 391 450 34,000  Level Washington Center
Thu 10:02:24 PM 35.8158 -77.8333 212° Southwest 386 444 34,000  Level Washington Center
Thu 10:03:24 PM 35.7247 -77.9022 212° Southwest 386 444 34,000  Level Washington Center
Thu 10:04:22 PM 35.6336 -77.9739 213° Southwest 386 444 34,000  Level Washington Center
Thu 10:05:22 PM 35.5425 -78.0450 212° Southwest 393 452 34,000  Level Washington Center
Thu 10:06:22 PM 35.4514 -78.1139 212° Southwest 393 452 34,000  Level Washington Center
Thu 10:07:23 PM 35.3603 -78.1847 212° Southwest 393 452 34,000  Level Washington Center
Thu 10:08:24 PM 35.2708 -78.2556 213° Southwest 393 452 34,000  Level Washington Center
Thu 10:09:23 PM 35.1775 -78.3264 212° Southwest 393 452 34,000  Level Washington Center
Thu 10:10:24 PM 35.0861 -78.3994 213° Southwest 393 452 34,000 -150 Level Washington Center
Thu 10:11:23 PM 34.9947 -78.4697 212° Southwest 398 458 33,700 -1,140 Descending Washington Center
Thu 10:13:44 PM 34.7619 -78.6447 212° Southwest 393 452 30,200 -1,433 Descending Jacksonville Center
Thu 10:14:44 PM 34.6683 -78.7150 212° Southwest 398 458 28,900 -1,100 Descending Jacksonville Center
Thu 10:15:44 PM 34.5769 -78.7850 212° Southwest 398 458 28,000 -450 Descending Jacksonville Center
Thu 10:16:44 PM 34.5056 -78.8386 212° Southwest 398 458 28,000  Level Jacksonville Center
Thu 10:17:44 PM 34.4081 -78.9214 215° Southwest 398 458 28,000  Level Jacksonville Center
Thu 10:18:44 PM 34.3186 -78.9908 213° Southwest 393 452 28,000  Level Jacksonville Center
Thu 10:19:44 PM 34.2117 -79.0483 204° Southwest 388 447 28,000 -400 Level Jacksonville Center
Thu 10:20:44 PM 34.1150 -79.0928 201° Southwest 383 441 27,200 -1,250 Descending Jacksonville Center
Thu 10:21:44 PM 34.0161 -79.1344 199° South 377 434 25,500 -1,600 Descending Jacksonville Center
Thu 10:22:44 PM 33.9194 -79.1811 202° Southwest 377 434 24,000 -850 Descending Jacksonville Center
Thu 10:23:44 PM 33.8289 -79.2225 201° Southwest 372 428 23,800 -650 Descending Jacksonville Center
Thu 10:24:44 PM 33.7411 -79.2836 210° Southwest 367 422 22,700 -1,400 Descending Jacksonville Center
Thu 10:25:44 PM 33.6658 -79.3517 217° Southwest 352 405 21,000 -1,800 Descending Jacksonville Center
Thu 10:26:44 PM 33.5906 -79.4219 218° Southwest 352 405 19,100 -1,700 Descending Jacksonville Center
Thu 10:27:44 PM 33.5150 -79.4872 216° Southwest 352 405 17,600 -1,700 Descending Jacksonville Center
Thu 10:28:44 PM 33.4439 -79.5547 218° Southwest 340 391 15,700 -1,800 Descending Jacksonville Center
Thu 10:29:44 PM 33.3725 -79.6194 217° Southwest 335 386 14,000 -1,700 Descending Jacksonville Center
Thu 10:30:44 PM 33.3031 -79.6792 216° Southwest 329 379 12,300 -1,700 Descending Jacksonville Center
Thu 10:31:44 PM 33.2356 -79.7386 216° Southwest 319 367 10,600 -1,400 Descending Jacksonville Center
Thu 10:32:44 PM 33.1725 -79.8006 219° Southwest 308 354 9,500 -1,250 Descending Jacksonville Center
Thu 10:33:44 PM 33.1089 -79.8447 210° Southwest 286 329 8,100 -1,450 Descending Jacksonville Center
Thu 10:34:44 PM 33.0472 -79.8892 211° Southwest 269 310 6,600 -1,300 Descending Jacksonville Center
Thu 10:35:44 PM 32.9856 -79.9258 207° Southwest 264 304 5,500 -1,150 Descending Jacksonville Center
Thu 10:36:44 PM 32.9303 -79.9672 212° Southwest 254 292 4,300 -1,200 Descending Jacksonville Center
Thu 10:38:00 PM 32.8833 -80.0333 220° Southwest  Level FlightAware Approximate
Thu 10:45:00 PM 32.8986 -80.0405 220° Southwest  Level Estimated
Thu 10:46:00 PM 32.8986 -80.0405 220° Southwest  Level Estimated
Thu 10:47:00 PM 32.8986 -80.0405 220° Southwest  Level Estimated
Thu 10:48:00 PM 32.8986 -80.0405 220° Southwest  Level Estimated

Login

Don't have an account? Register now (free) for customized features, flight alerts, and more!